sensor_id;sensor_type;location;lat;lon;timestamp;pressure;altitude;pressure_sealevel;temperature
75211;BMP280;63796;53.136;14.882;2022-11-15T00:01:11;101383.27;;;7.23
75211;BMP280;63796;53.136;14.882;2022-11-15T00:03:38;101390.98;;;7.22
75211;BMP280;63796;53.136;14.882;2022-11-15T00:06:05;101389.05;;;7.24
75211;BMP280;63796;53.136;14.882;2022-11-15T00:08:33;101386.64;;;7.27
75211;BMP280;63796;53.136;14.882;2022-11-15T00:11:02;101375.23;;;7.29
75211;BMP280;63796;53.136;14.882;2022-11-15T00:13:29;101378.94;;;7.29
75211;BMP280;63796;53.136;14.882;2022-11-15T00:15:58;101383.30;;;7.30
75211;BMP280;63796;53.136;14.882;2022-11-15T00:18:26;101376.83;;;7.27
75211;BMP280;63796;53.136;14.882;2022-11-15T00:20:53;101375.86;;;7.25
75211;BMP280;63796;53.136;14.882;2022-11-15T00:23:20;101368.47;;;7.24
75211;BMP280;63796;53.136;14.882;2022-11-15T00:25:56;101364.11;;;7.24
75211;BMP280;63796;53.136;14.882;2022-11-15T00:28:24;101376.84;;;7.29
75211;BMP280;63796;53.136;14.882;2022-11-15T00:30:52;101366.08;;;7.30
75211;BMP280;63796;53.136;14.882;2022-11-15T00:33:19;101372.34;;;7.31
75211;BMP280;63796;53.136;14.882;2022-11-15T00:35:46;101367.97;;;7.25
75211;BMP280;63796;53.136;14.882;2022-11-15T00:38:12;101366.38;;;7.20
75211;BMP280;63796;53.136;14.882;2022-11-15T00:40:40;101367.30;;;7.19
75211;BMP280;63796;53.136;14.882;2022-11-15T00:43:06;101371.65;;;7.13
75211;BMP280;63796;53.136;14.882;2022-11-15T00:45:36;101362.33;;;7.12
75211;BMP280;63796;53.136;14.882;2022-11-15T00:48:04;101368.89;;;7.11
75211;BMP280;63796;53.136;14.882;2022-11-15T00:50:31;101371.00;;;7.12
75211;BMP280;63796;53.136;14.882;2022-11-15T00:52:57;101361.52;;;7.11
75211;BMP280;63796;53.136;14.882;2022-11-15T00:55:24;101356.34;;;7.08
75211;BMP280;63796;53.136;14.882;2022-11-15T00:57:51;101354.56;;;7.09
75211;BMP280;63796;53.136;14.882;2022-11-15T01:00:18;101355.37;;;7.07
75211;BMP280;63796;53.136;14.882;2022-11-15T01:02:45;101353.11;;;7.04
75211;BMP280;63796;53.136;14.882;2022-11-15T01:05:12;101350.52;;;7.02
75211;BMP280;63796;53.136;14.882;2022-11-15T01:07:39;101336.05;;;7.02
75211;BMP280;63796;53.136;14.882;2022-11-15T01:10:07;101339.44;;;7.01
75211;BMP280;63796;53.136;14.882;2022-11-15T01:12:34;101340.88;;;7.02
75211;BMP280;63796;53.136;14.882;2022-11-15T01:15:01;101332.52;;;7.05
75211;BMP280;63796;53.136;14.882;2022-11-15T01:17:28;101341.53;;;7.09
75211;BMP280;63796;53.136;14.882;2022-11-15T01:19:57;101333.00;;;7.09
75211;BMP280;63796;53.136;14.882;2022-11-15T01:22:24;101328.83;;;7.10
75211;BMP280;63796;53.136;14.882;2022-11-15T01:24:51;101331.75;;;7.14
75211;BMP280;63796;53.136;14.882;2022-11-15T01:27:18;101328.37;;;7.18
75211;BMP280;63796;53.136;14.882;2022-11-15T01:29:44;101322.10;;;7.17
75211;BMP280;63796;53.136;14.882;2022-11-15T01:32:11;101324.36;;;7.17
75211;BMP280;63796;53.136;14.882;2022-11-15T01:34:38;101316.13;;;7.14
75211;BMP280;63796;53.136;14.882;2022-11-15T01:37:05;101309.39;;;7.15
75211;BMP280;63796;53.136;14.882;2022-11-15T01:39:33;101308.09;;;7.15
75211;BMP280;63796;53.136;14.882;2022-11-15T01:42:00;101307.11;;;7.13
75211;BMP280;63796;53.136;14.882;2022-11-15T01:44:50;101299.55;;;7.09
75211;BMP280;63796;53.136;14.882;2022-11-15T01:47:33;101300.81;;;7.03
75211;BMP280;63796;53.136;14.882;2022-11-15T01:50:12;101294.22;;;7.00
75211;BMP280;63796;53.136;14.882;2022-11-15T01:52:40;101290.49;;;6.95
75211;BMP280;63796;53.136;14.882;2022-11-15T01:55:14;101300.00;;;6.95
75211;BMP280;63796;53.136;14.882;2022-11-15T01:57:46;101294.37;;;6.95
75211;BMP280;63796;53.136;14.882;2022-11-15T02:00:15;101287.27;;;6.91
75211;BMP280;63796;53.136;14.882;2022-11-15T02:02:42;101287.92;;;6.88
75211;BMP280;63796;53.136;14.882;2022-11-15T02:05:10;101283.88;;;6.86
75211;BMP280;63796;53.136;14.882;2022-11-15T02:07:37;101280.02;;;6.85
75211;BMP280;63796;53.136;14.882;2022-11-15T02:13:02;101275.35;;;6.83
75211;BMP280;63796;53.136;14.882;2022-11-15T02:15:36;101273.58;;;6.84
75211;BMP280;63796;53.136;14.882;2022-11-15T02:18:45;101264.91;;;6.85
75211;BMP280;63796;53.136;14.882;2022-11-15T02:21:20;101257.66;;;6.86
75211;BMP280;63796;53.136;14.882;2022-11-15T02:35:38;101259.53;;;6.67
75211;BMP280;63796;53.136;14.882;2022-11-15T02:40:57;101262.07;;;6.60
75211;BMP280;63796;53.136;14.882;2022-11-15T02:43:36;101259.51;;;6.61
75211;BMP280;63796;53.136;14.882;2022-11-15T02:46:38;101258.22;;;6.57
75211;BMP280;63796;53.136;14.882;2022-11-15T02:49:28;101258.66;;;6.51
75211;BMP280;63796;53.136;14.882;2022-11-15T02:51:56;101268.95;;;6.51
75211;BMP280;63796;53.136;14.882;2022-11-15T02:54:30;101259.79;;;6.50
75211;BMP280;63796;53.136;14.882;2022-11-15T02:57:04;101272.49;;;6.47
75211;BMP280;63796;53.136;14.882;2022-11-15T02:59:51;101273.77;;;6.46
75211;BMP280;63796;53.136;14.882;2022-11-15T03:11:07;101247.39;;;6.46
75211;BMP280;63796;53.136;14.882;2022-11-15T03:14:02;101243.72;;;6.50
75211;BMP280;63796;53.136;14.882;2022-11-15T03:16:58;101243.22;;;6.49
75211;BMP280;63796;53.136;14.882;2022-11-15T03:19:29;101239.88;;;6.52
75211;BMP280;63796;53.136;14.882;2022-11-15T03:21:58;101245.51;;;6.59
75211;BMP280;63796;53.136;14.882;2022-11-15T03:24:29;101245.84;;;6.58
75211;BMP280;63796;53.136;14.882;2022-11-15T03:27:00;101247.44;;;6.53
75211;BMP280;63796;53.136;14.882;2022-11-15T03:29:32;101243.87;;;6.50
75211;BMP280;63796;53.136;14.882;2022-11-15T03:32:16;101242.28;;;6.49
75211;BMP280;63796;53.136;14.882;2022-11-15T03:35:01;101237.12;;;6.49
75211;BMP280;63796;53.136;14.882;2022-11-15T03:38:24;101232.45;;;6.49
75211;BMP280;63796;53.136;14.882;2022-11-15T03:40:08;101227.79;;;6.48
75211;BMP280;63796;53.136;14.882;2022-11-15T03:42:46;101218.48;;;6.45
75211;BMP280;63796;53.136;14.882;2022-11-15T03:45:23;101221.52;;;6.44
75211;BMP280;63796;53.136;14.882;2022-11-15T03:48:13;101214.09;;;6.41
75211;BMP280;63796;53.136;14.882;2022-11-15T03:50:43;101214.73;;;6.40
75211;BMP280;63796;53.136;14.882;2022-11-15T03:53:08;101214.75;;;6.42
75211;BMP280;63796;53.136;14.882;2022-11-15T03:55:35;101216.84;;;6.43
75211;BMP280;63796;53.136;14.882;2022-11-15T03:58:02;101223.45;;;6.44
75211;BMP280;63796;53.136;14.882;2022-11-15T04:00:29;101223.30;;;6.46
75211;BMP280;63796;53.136;14.882;2022-11-15T04:02:56;101220.23;;;6.48
75211;BMP280;63796;53.136;14.882;2022-11-15T04:05:23;101221.87;;;6.49
75211;BMP280;63796;53.136;14.882;2022-11-15T04:07:50;101214.47;;;6.49
75211;BMP280;63796;53.136;14.882;2022-11-15T04:10:17;101215.58;;;6.45
75211;BMP280;63796;53.136;14.882;2022-11-15T04:12:45;101216.53;;;6.45
75211;BMP280;63796;53.136;14.882;2022-11-15T04:15:19;101216.86;;;6.42
75211;BMP280;63796;53.136;14.882;2022-11-15T04:17:50;101225.67;;;6.36
75211;BMP280;63796;53.136;14.882;2022-11-15T04:20:24;101228.53;;;6.32
75211;BMP280;63796;53.136;14.882;2022-11-15T04:23:17;101226.45;;;6.30
75211;BMP280;63796;53.136;14.882;2022-11-15T04:26:10;101218.38;;;6.27
75211;BMP280;63796;53.136;14.882;2022-11-15T04:28:37;101230.44;;;6.29
75211;BMP280;63796;53.136;14.882;2022-11-15T04:31:22;101219.67;;;6.27
75211;BMP280;63796;53.136;14.882;2022-11-15T04:33:49;101222.75;;;6.30
75211;BMP280;63796;53.136;14.882;2022-11-15T04:36:16;101218.89;;;6.30
75211;BMP280;63796;53.136;14.882;2022-11-15T04:39:02;101218.40;;;6.29
75211;BMP280;63796;53.136;14.882;2022-11-15T04:41:29;101221.17;;;6.36
75211;BMP280;63796;53.136;14.882;2022-11-15T04:43:59;101222.63;;;6.42
75211;BMP280;63796;53.136;14.882;2022-11-15T04:46:26;101223.31;;;6.50
75211;BMP280;63796;53.136;14.882;2022-11-15T04:48:54;101216.73;;;6.56
75211;BMP280;63796;53.136;14.882;2022-11-15T04:51:21;101215.28;;;6.55
75211;BMP280;63796;53.136;14.882;2022-11-15T04:53:48;101212.55;;;6.53
75211;BMP280;63796;53.136;14.882;2022-11-15T04:56:15;101208.98;;;6.49
75211;BMP280;63796;53.136;14.882;2022-11-15T04:58:42;101211.56;;;6.45
75211;BMP280;63796;53.136;14.882;2022-11-15T05:01:12;101218.47;;;6.44
75211;BMP280;63796;53.136;14.882;2022-11-15T05:03:44;101215.22;;;6.40
75211;BMP280;63796;53.136;14.882;2022-11-15T05:06:28;101211.19;;;6.35
75211;BMP280;63796;53.136;14.882;2022-11-15T05:08:55;101204.42;;;6.32
75211;BMP280;63796;53.136;14.882;2022-11-15T05:11:23;101203.63;;;6.30
75211;BMP280;63796;53.136;14.882;2022-11-15T05:13:50;101199.74;;;6.27
75211;BMP280;63796;53.136;14.882;2022-11-15T05:16:17;101203.63;;;6.30
75211;BMP280;63796;53.136;14.882;2022-11-15T05:18:43;101208.45;;;6.35
75211;BMP280;63796;53.136;14.882;2022-11-15T05:21:14;101213.30;;;6.39
75211;BMP280;63796;53.136;14.882;2022-11-15T05:23:41;101203.48;;;6.37
75211;BMP280;63796;53.136;14.882;2022-11-15T05:26:09;101210.73;;;6.38
75211;BMP280;63796;53.136;14.882;2022-11-15T05:28:36;101205.42;;;6.39
75211;BMP280;63796;53.136;14.882;2022-11-15T05:31:09;101201.89;;;6.39
75211;BMP280;63796;53.136;14.882;2022-11-15T05:33:38;101199.00;;;6.42
75211;BMP280;63796;53.136;14.882;2022-11-15T05:36:35;101200.45;;;6.45
75211;BMP280;63796;53.136;14.882;2022-11-15T05:39:04;101199.33;;;6.42
75211;BMP280;63796;53.136;14.882;2022-11-15T05:41:44;101196.59;;;6.43
75211;BMP280;63796;53.136;14.882;2022-11-15T05:44:13;101198.52;;;6.43
75211;BMP280;63796;53.136;14.882;2022-11-15T05:46:42;101194.81;;;6.39
75211;BMP280;63796;53.136;14.882;2022-11-15T05:49:13;101191.93;;;6.40
75211;BMP280;63796;53.136;14.882;2022-11-15T05:51:43;101187.89;;;6.35
75211;BMP280;63796;53.136;14.882;2022-11-15T05:54:11;101188.20;;;6.31
75211;BMP280;63796;53.136;14.882;2022-11-15T05:56:38;101187.08;;;6.31
75211;BMP280;63796;53.136;14.882;2022-11-15T05:59:09;101186.91;;;6.32
75211;BMP280;63796;53.136;14.882;2022-11-15T06:01:38;101194.14;;;6.30
75211;BMP280;63796;53.136;14.882;2022-11-15T06:04:06;101185.94;;;6.29
75211;BMP280;63796;53.136;14.882;2022-11-15T06:06:33;101188.52;;;6.29
75211;BMP280;63796;53.136;14.882;2022-11-15T06:09:00;101190.61;;;6.30
75211;BMP280;63796;53.136;14.882;2022-11-15T06:11:26;101187.70;;;6.32
75211;BMP280;63796;53.136;14.882;2022-11-15T06:13:53;101187.72;;;6.31
75211;BMP280;63796;53.136;14.882;2022-11-15T06:16:21;101191.74;;;6.31
75211;BMP280;63796;53.136;14.882;2022-11-15T06:18:48;101197.52;;;6.27
75211;BMP280;63796;53.136;14.882;2022-11-15T06:21:15;101196.69;;;6.26
75211;BMP280;63796;53.136;14.882;2022-11-15T06:23:44;101202.33;;;6.28
75211;BMP280;63796;53.136;14.882;2022-11-15T06:26:11;101207.32;;;6.28
75211;BMP280;63796;53.136;14.882;2022-11-15T06:28:38;101209.20;;;6.25
75211;BMP280;63796;53.136;14.882;2022-11-15T06:31:09;101204.23;;;6.23
75211;BMP280;63796;53.136;14.882;2022-11-15T06:33:38;101204.25;;;6.25
75211;BMP280;63796;53.136;14.882;2022-11-15T06:36:10;101203.13;;;6.30
75211;BMP280;63796;53.136;14.882;2022-11-15T06:38:37;101204.13;;;6.37
75211;BMP280;63796;53.136;14.882;2022-11-15T06:41:07;101204.14;;;6.42
75211;BMP280;63796;53.136;14.882;2022-11-15T06:43:35;101202.05;;;6.43
75211;BMP280;63796;53.136;14.882;2022-11-15T06:46:04;101199.17;;;6.41
75211;BMP280;63796;53.136;14.882;2022-11-15T06:48:33;101199.48;;;6.42
75211;BMP280;63796;53.136;14.882;2022-11-15T06:51:02;101210.92;;;6.48
75211;BMP280;63796;53.136;14.882;2022-11-15T06:53:31;101213.52;;;6.56
75211;BMP280;63796;53.136;14.882;2022-11-15T06:56:06;101216.09;;;6.58
75211;BMP280;63796;53.136;14.882;2022-11-15T06:58:34;101211.42;;;6.57
75211;BMP280;63796;53.136;14.882;2022-11-15T07:01:10;101217.23;;;6.58
75211;BMP280;63796;53.136;14.882;2022-11-15T07:03:40;101219.48;;;6.59
75211;BMP280;63796;53.136;14.882;2022-11-15T07:06:09;101219.48;;;6.61
75211;BMP280;63796;53.136;14.882;2022-11-15T07:08:36;101219.98;;;6.61
75211;BMP280;63796;53.136;14.882;2022-11-15T07:11:06;101224.80;;;6.63
75211;BMP280;63796;53.136;14.882;2022-11-15T07:13:36;101223.03;;;6.65
75211;BMP280;63796;53.136;14.882;2022-11-15T07:16:08;101222.70;;;6.67
75211;BMP280;63796;53.136;14.882;2022-11-15T07:18:38;101221.75;;;6.66
75211;BMP280;63796;53.136;14.882;2022-11-15T07:21:09;101225.80;;;6.73
75211;BMP280;63796;53.136;14.882;2022-11-15T07:23:37;101224.17;;;6.72
75211;BMP280;63796;53.136;14.882;2022-11-15T07:26:05;101231.27;;;6.74
75211;BMP280;63796;53.136;14.882;2022-11-15T07:28:31;101224.81;;;6.69
75211;BMP280;63796;53.136;14.882;2022-11-15T07:31:05;101226.73;;;6.70
75211;BMP280;63796;53.136;14.882;2022-11-15T07:33:32;101225.14;;;6.68
75211;BMP280;63796;53.136;14.882;2022-11-15T07:36:06;101229.63;;;6.67
75211;BMP280;63796;53.136;14.882;2022-11-15T07:38:35;101236.06;;;6.67
75211;BMP280;63796;53.136;14.882;2022-11-15T07:41:05;101235.78;;;6.74
75211;BMP280;63796;53.136;14.882;2022-11-15T07:43:32;101232.39;;;6.74
75211;BMP280;63796;53.136;14.882;2022-11-15T07:46:06;101225.16;;;6.81
75211;BMP280;63796;53.136;14.882;2022-11-15T07:48:38;101219.07;;;6.88
75211;BMP280;63796;53.136;14.882;2022-11-15T07:51:12;101228.10;;;6.92
75211;BMP280;63796;53.136;14.882;2022-11-15T07:53:41;101222.46;;;6.93
75211;BMP280;63796;53.136;14.882;2022-11-15T07:56:09;101216.98;;;6.94
75211;BMP280;63796;53.136;14.882;2022-11-15T07:58:36;101219.89;;;6.99
75211;BMP280;63796;53.136;14.882;2022-11-15T08:01:06;101222.32;;;7.05
75211;BMP280;63796;53.136;14.882;2022-11-15T08:03:33;101225.86;;;7.08
75211;BMP280;63796;53.136;14.882;2022-11-15T08:06:00;101220.54;;;7.05
75211;BMP280;63796;53.136;14.882;2022-11-15T08:08:27;101218.30;;;7.07
75211;BMP280;63796;53.136;14.882;2022-11-15T08:10:54;101215.41;;;7.07
75211;BMP280;63796;53.136;14.882;2022-11-15T08:13:20;101214.61;;;7.10
75211;BMP280;63796;53.136;14.882;2022-11-15T08:15:47;101216.69;;;7.17
75211;BMP280;63796;53.136;14.882;2022-11-15T08:18:16;101226.85;;;7.28
75211;BMP280;63796;53.136;14.882;2022-11-15T08:20:43;101222.19;;;7.34
75211;BMP280;63796;53.136;14.882;2022-11-15T08:23:11;101223.65;;;7.38
75211;BMP280;63796;53.136;14.882;2022-11-15T08:25:42;101221.05;;;7.38
75211;BMP280;63796;53.136;14.882;2022-11-15T08:28:10;101227.02;;;7.42
75211;BMP280;63796;53.136;14.882;2022-11-15T08:30:40;101232.00;;;7.50
75211;BMP280;63796;53.136;14.882;2022-11-15T08:33:12;101226.22;;;7.59
75211;BMP280;63796;53.136;14.882;2022-11-15T08:35:41;101227.64;;;7.64
75211;BMP280;63796;53.136;14.882;2022-11-15T08:38:09;101225.22;;;7.72
75211;BMP280;63796;53.136;14.882;2022-11-15T08:40:37;101223.13;;;7.77
75211;BMP280;63796;53.136;14.882;2022-11-15T08:43:04;101223.59;;;7.83
75211;BMP280;63796;53.136;14.882;2022-11-15T08:45:33;101224.23;;;7.92
75211;BMP280;63796;53.136;14.882;2022-11-15T08:48:02;101216.31;;;7.99
75211;BMP280;63796;53.136;14.882;2022-11-15T08:50:30;101211.14;;;8.00
75211;BMP280;63796;53.136;14.882;2022-11-15T08:52:57;101214.52;;;8.03
75211;BMP280;63796;53.136;14.882;2022-11-15T08:55:24;101220.80;;;8.05
75211;BMP280;63796;53.136;14.882;2022-11-15T08:57:51;101216.27;;;8.12
75211;BMP280;63796;53.136;14.882;2022-11-15T09:00:18;101220.77;;;8.22
75211;BMP280;63796;53.136;14.882;2022-11-15T09:02:46;101220.11;;;8.29
75211;BMP280;63796;53.136;14.882;2022-11-15T09:05:13;101223.67;;;8.26
75211;BMP280;63796;53.136;14.882;2022-11-15T09:07:41;101218.36;;;8.28
75211;BMP280;63796;53.136;14.882;2022-11-15T09:10:08;101215.09;;;8.35
75211;BMP280;63796;53.136;14.882;2022-11-15T09:12:35;101212.81;;;8.44
75211;BMP280;63796;53.136;14.882;2022-11-15T09:15:03;101211.31;;;8.53
75211;BMP280;63796;53.136;14.882;2022-11-15T09:17:30;101212.75;;;8.54
75211;BMP280;63796;53.136;14.882;2022-11-15T09:19:57;101211.28;;;8.58
75211;BMP280;63796;53.136;14.882;2022-11-15T09:22:25;101208.69;;;8.59
75211;BMP280;63796;53.136;14.882;2022-11-15T09:24:51;101205.30;;;8.63
75211;BMP280;63796;53.136;14.882;2022-11-15T09:27:18;101200.68;;;8.80
75211;BMP280;63796;53.136;14.882;2022-11-15T09:29:45;101193.98;;;8.93
75211;BMP280;63796;53.136;14.882;2022-11-15T09:32:12;101192.04;;;8.92
75211;BMP280;63796;53.136;14.882;2022-11-15T09:34:43;101196.05;;;8.95
75211;BMP280;63796;53.136;14.882;2022-11-15T09:37:07;101187.66;;;8.95
75211;BMP280;63796;53.136;14.882;2022-11-15T09:39:34;101180.34;;;9.03
75211;BMP280;63796;53.136;14.882;2022-11-15T09:44:47;101183.04;;;9.10
75211;BMP280;63796;53.136;14.882;2022-11-15T09:47:55;101183.72;;;9.08
75211;BMP280;63796;53.136;14.882;2022-11-15T09:50:38;101181.48;;;9.02
75211;BMP280;63796;53.136;14.882;2022-11-15T09:55:59;101176.41;;;8.93
75211;BMP280;63796;53.136;14.882;2022-11-15T09:58:53;101174.86;;;9.04
75211;BMP280;63796;53.136;14.882;2022-11-15T10:01:36;101179.75;;;9.19
75211;BMP280;63796;53.136;14.882;2022-11-15T10:04:01;101185.27;;;9.15
75211;BMP280;63796;53.136;14.882;2022-11-15T10:06:28;101184.34;;;9.09
75211;BMP280;63796;53.136;14.882;2022-11-15T10:09:06;101177.34;;;9.17
75211;BMP280;63796;53.136;14.882;2022-11-15T10:11:36;101173.10;;;9.24
75211;BMP280;63796;53.136;14.882;2022-11-15T10:14:20;101171.23;;;9.32
75211;BMP280;63796;53.136;14.882;2022-11-15T10:22:53;101168.25;;;9.60
75211;BMP280;63796;53.136;14.882;2022-11-15T10:25:28;101176.80;;;9.44
75211;BMP280;63796;53.136;14.882;2022-11-15T10:28:04;101170.66;;;9.44
75211;BMP280;63796;53.136;14.882;2022-11-15T10:30:38;101169.56;;;9.56
75211;BMP280;63796;53.136;14.882;2022-11-15T10:38:55;101157.64;;;9.56
75211;BMP280;63796;53.136;14.882;2022-11-15T10:41:34;101153.52;;;9.63
75211;BMP280;63796;53.136;14.882;2022-11-15T10:49:32;101150.60;;;9.79
75211;BMP280;63796;53.136;14.882;2022-11-15T10:52:13;101154.98;;;9.91
75211;BMP280;63796;53.136;14.882;2022-11-15T10:57:33;101150.97;;;9.88
75211;BMP280;63796;53.136;14.882;2022-11-15T11:05:38;101146.80;;;9.87
75211;BMP280;63796;53.136;14.882;2022-11-15T11:08:20;101143.67;;;9.92
75211;BMP280;63796;53.136;14.882;2022-11-15T11:10:58;101140.70;;;9.96
75211;BMP280;63796;53.136;14.882;2022-11-15T11:19:08;101131.52;;;10.24
75211;BMP280;63796;53.136;14.882;2022-11-15T11:30:11;101115.24;;;10.42
75211;BMP280;63796;53.136;14.882;2022-11-15T11:32:59;101107.09;;;10.48
75211;BMP280;63796;53.136;14.882;2022-11-15T11:35:50;101110.47;;;10.50
75211;BMP280;63796;53.136;14.882;2022-11-15T11:38:49;101098.84;;;10.36
75211;BMP280;63796;53.136;14.882;2022-11-15T11:50:03;101084.77;;;10.47
75211;BMP280;63796;53.136;14.882;2022-11-15T11:55:27;101086.05;;;10.79
75211;BMP280;63796;53.136;14.882;2022-11-15T11:58:14;101089.38;;;10.93
75211;BMP280;63796;53.136;14.882;2022-11-15T12:00:54;101097.64;;;11.04
75211;BMP280;63796;53.136;14.882;2022-11-15T12:06:38;101088.79;;;10.99
75211;BMP280;63796;53.136;14.882;2022-11-15T12:12:13;101088.52;;;10.88
75211;BMP280;63796;53.136;14.882;2022-11-15T12:14:47;101083.28;;;10.80
75211;BMP280;63796;53.136;14.882;2022-11-15T12:17:19;101080.68;;;10.71
75211;BMP280;63796;53.136;14.882;2022-11-15T12:19:46;101077.86;;;10.56
75211;BMP280;63796;53.136;14.882;2022-11-15T12:28:16;101069.25;;;10.36
75211;BMP280;63796;53.136;14.882;2022-11-15T12:31:03;101065.48;;;10.40
75211;BMP280;63796;53.136;14.882;2022-11-15T12:33:46;101060.25;;;10.42
75211;BMP280;63796;53.136;14.882;2022-11-15T12:38:57;101054.88;;;10.34
75211;BMP280;63796;53.136;14.882;2022-11-15T12:41:30;101049.48;;;10.28
75211;BMP280;63796;53.136;14.882;2022-11-15T12:43:58;101050.65;;;10.25
75211;BMP280;63796;53.136;14.882;2022-11-15T12:59:59;101048.39;;;10.14
75211;BMP280;63796;53.136;14.882;2022-11-15T13:02:37;101048.09;;;10.12
75211;BMP280;63796;53.136;14.882;2022-11-15T13:05:52;101043.76;;;10.08
75211;BMP280;63796;53.136;14.882;2022-11-15T13:07:58;101045.41;;;10.04
75211;BMP280;63796;53.136;14.882;2022-11-15T13:10:32;101048.95;;;10.07
75211;BMP280;63796;53.136;14.882;2022-11-15T13:13:07;101045.06;;;10.10
75211;BMP280;63796;53.136;14.882;2022-11-15T13:15:58;101039.68;;;10.12
75211;BMP280;63796;53.136;14.882;2022-11-15T13:18:30;101028.34;;;10.14
75211;BMP280;63796;53.136;14.882;2022-11-15T13:20:58;101031.62;;;10.11
75211;BMP280;63796;53.136;14.882;2022-11-15T13:23:25;101024.64;;;10.12
75211;BMP280;63796;53.136;14.882;2022-11-15T13:26:13;101024.16;;;10.13
75211;BMP280;63796;53.136;14.882;2022-11-15T13:28:49;101029.25;;;10.04
75211;BMP280;63796;53.136;14.882;2022-11-15T13:34:03;101022.45;;;9.93
75211;BMP280;63796;53.136;14.882;2022-11-15T13:36:33;101025.41;;;9.91
75211;BMP280;63796;53.136;14.882;2022-11-15T13:39:23;101024.83;;;9.86
75211;BMP280;63796;53.136;14.882;2022-11-15T13:41:50;101033.05;;;9.87
75211;BMP280;63796;53.136;14.882;2022-11-15T13:44:28;101026.09;;;9.86
75211;BMP280;63796;53.136;14.882;2022-11-15T13:47:15;101020.63;;;9.86
75211;BMP280;63796;53.136;14.882;2022-11-15T13:49:42;101017.74;;;9.84
75211;BMP280;63796;53.136;14.882;2022-11-15T13:52:13;101024.72;;;9.80
75211;BMP280;63796;53.136;14.882;2022-11-15T13:55:05;101015.67;;;9.80
75211;BMP280;63796;53.136;14.882;2022-11-15T13:57:48;101018.58;;;9.80
75211;BMP280;63796;53.136;14.882;2022-11-15T14:03:26;101002.94;;;9.67
75211;BMP280;63796;53.136;14.882;2022-11-15T14:06:13;100997.41;;;9.57
75211;BMP280;63796;53.136;14.882;2022-11-15T14:11:52;100992.95;;;9.38
75211;BMP280;63796;53.136;14.882;2022-11-15T14:14:22;100998.12;;;9.37
75211;BMP280;63796;53.136;14.882;2022-11-15T14:16:53;101003.32;;;9.34
75211;BMP280;63796;53.136;14.882;2022-11-15T14:22:14;101012.72;;;9.17
75211;BMP280;63796;53.136;14.882;2022-11-15T14:24:45;101019.12;;;9.08
75211;BMP280;63796;53.136;14.882;2022-11-15T14:27:27;101018.78;;;9.07
75211;BMP280;63796;53.136;14.882;2022-11-15T14:29:55;101025.58;;;9.06
75211;BMP280;63796;53.136;14.882;2022-11-15T14:32:26;101020.92;;;9.02
75211;BMP280;63796;53.136;14.882;2022-11-15T14:35:00;101024.98;;;8.99
75211;BMP280;63796;53.136;14.882;2022-11-15T14:37:33;101021.61;;;8.99
75211;BMP280;63796;53.136;14.882;2022-11-15T14:40:03;101016.16;;;8.94
75211;BMP280;63796;53.136;14.882;2022-11-15T14:42:31;101011.72;;;8.86
75211;BMP280;63796;53.136;14.882;2022-11-15T14:44:58;101013.56;;;8.80
75211;BMP280;63796;53.136;14.882;2022-11-15T14:47:25;101010.53;;;8.75
75211;BMP280;63796;53.136;14.882;2022-11-15T14:49:52;101016.23;;;8.71
75211;BMP280;63796;53.136;14.882;2022-11-15T14:52:31;101018.95;;;8.72
75211;BMP280;63796;53.136;14.882;2022-11-15T14:55:03;101013.48;;;8.71
75211;BMP280;63796;53.136;14.882;2022-11-15T14:57:30;101013.00;;;8.68
75211;BMP280;63796;53.136;14.882;2022-11-15T14:59:57;101005.27;;;8.69
75211;BMP280;63796;53.136;14.882;2022-11-15T15:02:26;101008.66;;;8.69
75211;BMP280;63796;53.136;14.882;2022-11-15T15:04:54;101011.53;;;8.73
75211;BMP280;63796;53.136;14.882;2022-11-15T15:07:21;101007.45;;;8.76
75211;BMP280;63796;53.136;14.882;2022-11-15T15:09:48;101009.72;;;8.77
75211;BMP280;63796;53.136;14.882;2022-11-15T15:12:21;100999.70;;;8.76
75211;BMP280;63796;53.136;14.882;2022-11-15T15:14:50;100999.07;;;8.77
75211;BMP280;63796;53.136;14.882;2022-11-15T15:17:18;101000.34;;;8.78
75211;BMP280;63796;53.136;14.882;2022-11-15T15:19:44;101000.52;;;8.76
75211;BMP280;63796;53.136;14.882;2022-11-15T15:22:17;100994.43;;;8.74
75211;BMP280;63796;53.136;14.882;2022-11-15T15:24:46;100992.32;;;8.73
75211;BMP280;63796;53.136;14.882;2022-11-15T15:27:13;100991.88;;;8.68
75211;BMP280;63796;53.136;14.882;2022-11-15T15:29:41;100992.57;;;8.64
75211;BMP280;63796;53.136;14.882;2022-11-15T15:32:09;100991.94;;;8.63
75211;BMP280;63796;53.136;14.882;2022-11-15T15:34:37;100995.66;;;8.61
75211;BMP280;63796;53.136;14.882;2022-11-15T15:37:25;100989.06;;;8.59
75211;BMP280;63796;53.136;14.882;2022-11-15T15:39:54;100995.84;;;8.57
75211;BMP280;63796;53.136;14.882;2022-11-15T15:42:22;101002.81;;;8.55
75211;BMP280;63796;53.136;14.882;2022-11-15T15:44:50;100998.48;;;8.51
75211;BMP280;63796;53.136;14.882;2022-11-15T15:47:20;100994.80;;;8.48
75211;BMP280;63796;53.136;14.882;2022-11-15T15:49:49;100994.98;;;8.47
75211;BMP280;63796;53.136;14.882;2022-11-15T15:52:17;100991.27;;;8.47
75211;BMP280;63796;53.136;14.882;2022-11-15T15:54:45;100991.75;;;8.47
75211;BMP280;63796;53.136;14.882;2022-11-15T15:57:14;100987.88;;;8.47
75211;BMP280;63796;53.136;14.882;2022-11-15T15:59:42;100991.59;;;8.47
75211;BMP280;63796;53.136;14.882;2022-11-15T16:02:12;100992.39;;;8.46
75211;BMP280;63796;53.136;14.882;2022-11-15T16:04:41;100985.95;;;8.47
75211;BMP280;63796;53.136;14.882;2022-11-15T16:07:16;100981.33;;;8.41
75211;BMP280;63796;53.136;14.882;2022-11-15T16:09:44;100984.13;;;8.33
75211;BMP280;63796;53.136;14.882;2022-11-15T16:12:33;100993.66;;;8.27
75211;BMP280;63796;53.136;14.882;2022-11-15T16:15:02;100989.18;;;8.22
75211;BMP280;63796;53.136;14.882;2022-11-15T16:17:42;100993.39;;;8.17
75211;BMP280;63796;53.136;14.882;2022-11-15T16:22:49;100990.39;;;8.09
75211;BMP280;63796;53.136;14.882;2022-11-15T16:25:16;100995.70;;;8.08
75211;BMP280;63796;53.136;14.882;2022-11-15T16:27:43;100995.70;;;8.09